sensor_id;sensor_type;location;lat;lon;timestamp;P1;durP1;ratioP1;P2;durP2;ratioP2
78322;SDS011;67583;50.616;-3.404;2023-07-28T00:00:39;4.05;;;1.08;;
78322;SDS011;67583;50.616;-3.404;2023-07-28T00:03:04;2.60;;;1.08;;
78322;SDS011;67583;50.616;-3.404;2023-07-28T00:05:29;2.42;;;0.80;;
78322;SDS011;67583;50.616;-3.404;2023-07-28T00:07:55;1.15;;;0.90;;
78322;SDS011;67583;50.616;-3.404;2023-07-28T00:10:20;2.15;;;1.23;;
78322;SDS011;67583;50.616;-3.404;2023-07-28T00:12:46;2.00;;;1.00;;
78322;SDS011;67583;50.616;-3.404;2023-07-28T00:15:11;3.22;;;1.20;;
78322;SDS011;67583;50.616;-3.404;2023-07-28T00:17:36;5.75;;;1.20;;
78322;SDS011;67583;50.616;-3.404;2023-07-28T00:20:02;0.80;;;0.70;;
78322;SDS011;67583;50.616;-3.404;2023-07-28T00:22:28;1.63;;;0.95;;
78322;SDS011;67583;50.616;-3.404;2023-07-28T00:24:53;1.58;;;0.60;;
78322;SDS011;67583;50.616;-3.404;2023-07-28T00:27:18;0.80;;;0.60;;
78322;SDS011;67583;50.616;-3.404;2023-07-28T00:29:44;1.00;;;0.80;;
78322;SDS011;67583;50.616;-3.404;2023-07-28T00:32:09;2.53;;;1.27;;
78322;SDS011;67583;50.616;-3.404;2023-07-28T00:34:34;0.75;;;0.50;;
78322;SDS011;67583;50.616;-3.404;2023-07-28T00:37:00;0.88;;;0.82;;
78322;SDS011;67583;50.616;-3.404;2023-07-28T00:39:25;1.23;;;0.65;;
78322;SDS011;67583;50.616;-3.404;2023-07-28T00:41:50;0.73;;;0.70;;
78322;SDS011;67583;50.616;-3.404;2023-07-28T00:44:16;0.77;;;0.77;;
78322;SDS011;67583;50.616;-3.404;2023-07-28T00:46:42;0.70;;;0.68;;
78322;SDS011;67583;50.616;-3.404;2023-07-28T00:49:08;1.10;;;0.70;;
78322;SDS011;67583;50.616;-3.404;2023-07-28T00:51:35;0.75;;;0.70;;
78322;SDS011;67583;50.616;-3.404;2023-07-28T00:54:00;2.08;;;0.73;;
78322;SDS011;67583;50.616;-3.404;2023-07-28T00:56:27;0.50;;;0.50;;
78322;SDS011;67583;50.616;-3.404;2023-07-28T00:58:52;1.05;;;0.70;;
78322;SDS011;67583;50.616;-3.404;2023-07-28T01:01:18;0.65;;;0.60;;
78322;SDS011;67583;50.616;-3.404;2023-07-28T01:03:43;1.63;;;0.55;;
78322;SDS011;67583;50.616;-3.404;2023-07-28T01:06:20;0.98;;;0.60;;
78322;SDS011;67583;50.616;-3.404;2023-07-28T01:09:09;0.70;;;0.63;;
78322;SDS011;67583;50.616;-3.404;2023-07-28T01:11:38;0.80;;;0.68;;
78322;SDS011;67583;50.616;-3.404;2023-07-28T01:14:03;0.93;;;0.50;;
78322;SDS011;67583;50.616;-3.404;2023-07-28T01:16:29;1.60;;;0.80;;
78322;SDS011;67583;50.616;-3.404;2023-07-28T01:18:54;0.55;;;0.55;;
78322;SDS011;67583;50.616;-3.404;2023-07-28T01:21:20;1.15;;;0.75;;
78322;SDS011;67583;50.616;-3.404;2023-07-28T01:26:37;0.93;;;0.60;;
78322;SDS011;67583;50.616;-3.404;2023-07-28T01:29:05;2.22;;;1.48;;
78322;SDS011;67583;50.616;-3.404;2023-07-28T01:31:31;1.52;;;0.73;;
78322;SDS011;67583;50.616;-3.404;2023-07-28T01:33:57;1.45;;;0.90;;
78322;SDS011;67583;50.616;-3.404;2023-07-28T01:36:22;2.67;;;0.80;;
78322;SDS011;67583;50.616;-3.404;2023-07-28T01:38:48;1.85;;;0.95;;
78322;SDS011;67583;50.616;-3.404;2023-07-28T01:41:13;1.45;;;0.85;;
78322;SDS011;67583;50.616;-3.404;2023-07-28T01:43:39;1.92;;;0.82;;
78322;SDS011;67583;50.616;-3.404;2023-07-28T01:46:04;2.42;;;1.00;;
78322;SDS011;67583;50.616;-3.404;2023-07-28T01:48:30;0.63;;;0.52;;
78322;SDS011;67583;50.616;-3.404;2023-07-28T01:50:55;1.83;;;0.70;;
78322;SDS011;67583;50.616;-3.404;2023-07-28T01:53:20;0.70;;;0.70;;
78322;SDS011;67583;50.616;-3.404;2023-07-28T01:55:46;2.15;;;1.02;;
78322;SDS011;67583;50.616;-3.404;2023-07-28T01:58:11;1.13;;;0.47;;
78322;SDS011;67583;50.616;-3.404;2023-07-28T02:00:37;1.05;;;0.80;;
78322;SDS011;67583;50.616;-3.404;2023-07-28T02:03:02;0.75;;;0.63;;
78322;SDS011;67583;50.616;-3.404;2023-07-28T02:05:28;0.95;;;0.60;;
78322;SDS011;67583;50.616;-3.404;2023-07-28T02:07:54;2.00;;;0.90;;
78322;SDS011;67583;50.616;-3.404;2023-07-28T02:10:21;1.45;;;0.80;;
78322;SDS011;67583;50.616;-3.404;2023-07-28T02:12:47;1.30;;;0.70;;
78322;SDS011;67583;50.616;-3.404;2023-07-28T02:15:13;1.13;;;0.80;;
78322;SDS011;67583;50.616;-3.404;2023-07-28T02:17:38;0.60;;;0.60;;
78322;SDS011;67583;50.616;-3.404;2023-07-28T02:20:04;1.80;;;1.10;;
78322;SDS011;67583;50.616;-3.404;2023-07-28T02:22:30;0.60;;;0.50;;
78322;SDS011;67583;50.616;-3.404;2023-07-28T02:24:55;1.02;;;0.70;;
78322;SDS011;67583;50.616;-3.404;2023-07-28T02:27:21;1.05;;;0.73;;
78322;SDS011;67583;50.616;-3.404;2023-07-28T02:29:46;2.20;;;0.80;;
78322;SDS011;67583;50.616;-3.404;2023-07-28T02:32:13;0.73;;;0.73;;
78322;SDS011;67583;50.616;-3.404;2023-07-28T02:34:38;4.35;;;1.00;;
78322;SDS011;67583;50.616;-3.404;2023-07-28T02:37:03;1.52;;;0.80;;
78322;SDS011;67583;50.616;-3.404;2023-07-28T02:39:29;1.17;;;0.73;;
78322;SDS011;67583;50.616;-3.404;2023-07-28T02:41:54;1.30;;;1.05;;
78322;SDS011;67583;50.616;-3.404;2023-07-28T02:44:20;0.85;;;0.65;;
78322;SDS011;67583;50.616;-3.404;2023-07-28T02:46:45;2.03;;;0.95;;
78322;SDS011;67583;50.616;-3.404;2023-07-28T02:49:10;1.60;;;0.80;;
78322;SDS011;67583;50.616;-3.404;2023-07-28T02:51:36;2.72;;;1.00;;
78322;SDS011;67583;50.616;-3.404;2023-07-28T02:54:02;0.43;;;0.40;;
78322;SDS011;67583;50.616;-3.404;2023-07-28T02:56:28;2.00;;;0.90;;
78322;SDS011;67583;50.616;-3.404;2023-07-28T02:58:54;1.33;;;0.75;;
78322;SDS011;67583;50.616;-3.404;2023-07-28T03:01:19;1.00;;;0.88;;
78322;SDS011;67583;50.616;-3.404;2023-07-28T03:03:45;1.20;;;1.10;;
78322;SDS011;67583;50.616;-3.404;2023-07-28T03:06:12;1.70;;;1.05;;
78322;SDS011;67583;50.616;-3.404;2023-07-28T03:08:37;1.27;;;0.93;;
78322;SDS011;67583;50.616;-3.404;2023-07-28T03:11:03;1.45;;;1.00;;
78322;SDS011;67583;50.616;-3.404;2023-07-28T03:13:28;1.08;;;0.90;;
78322;SDS011;67583;50.616;-3.404;2023-07-28T03:15:54;1.60;;;0.98;;
78322;SDS011;67583;50.616;-3.404;2023-07-28T03:18:19;2.25;;;1.30;;
78322;SDS011;67583;50.616;-3.404;2023-07-28T03:20:45;1.42;;;1.20;;
78322;SDS011;67583;50.616;-3.404;2023-07-28T03:23:11;3.83;;;1.30;;
78322;SDS011;67583;50.616;-3.404;2023-07-28T03:25:36;3.47;;;1.55;;
78322;SDS011;67583;50.616;-3.404;2023-07-28T03:28:02;2.22;;;1.30;;
78322;SDS011;67583;50.616;-3.404;2023-07-28T03:30:27;2.70;;;1.35;;
78322;SDS011;67583;50.616;-3.404;2023-07-28T03:32:53;1.83;;;1.27;;
78322;SDS011;67583;50.616;-3.404;2023-07-28T03:35:18;1.95;;;1.40;;
78322;SDS011;67583;50.616;-3.404;2023-07-28T03:37:43;2.85;;;1.75;;
78322;SDS011;67583;50.616;-3.404;2023-07-28T03:40:09;1.95;;;1.42;;
78322;SDS011;67583;50.616;-3.404;2023-07-28T03:42:34;2.55;;;1.60;;
78322;SDS011;67583;50.616;-3.404;2023-07-28T03:45:00;2.65;;;1.80;;
78322;SDS011;67583;50.616;-3.404;2023-07-28T03:47:25;3.20;;;1.80;;
78322;SDS011;67583;50.616;-3.404;2023-07-28T03:49:51;2.50;;;1.60;;
78322;SDS011;67583;50.616;-3.404;2023-07-28T03:52:16;2.20;;;1.50;;
78322;SDS011;67583;50.616;-3.404;2023-07-28T03:54:42;2.78;;;1.75;;
78322;SDS011;67583;50.616;-3.404;2023-07-28T03:57:08;2.47;;;1.52;;
78322;SDS011;67583;50.616;-3.404;2023-07-28T03:59:34;3.95;;;1.52;;
78322;SDS011;67583;50.616;-3.404;2023-07-28T04:01:59;2.92;;;1.80;;
78322;SDS011;67583;50.616;-3.404;2023-07-28T04:04:24;3.38;;;2.22;;
78322;SDS011;67583;50.616;-3.404;2023-07-28T04:06:50;2.00;;;1.52;;
78322;SDS011;67583;50.616;-3.404;2023-07-28T04:09:15;2.92;;;1.65;;
78322;SDS011;67583;50.616;-3.404;2023-07-28T04:11:41;3.53;;;1.48;;
78322;SDS011;67583;50.616;-3.404;2023-07-28T04:14:06;4.28;;;1.80;;
78322;SDS011;67583;50.616;-3.404;2023-07-28T04:16:33;2.47;;;1.58;;
78322;SDS011;67583;50.616;-3.404;2023-07-28T04:18:59;4.20;;;1.92;;
78322;SDS011;67583;50.616;-3.404;2023-07-28T04:21:25;2.67;;;1.50;;
78322;SDS011;67583;50.616;-3.404;2023-07-28T04:23:50;2.88;;;1.48;;
78322;SDS011;67583;50.616;-3.404;2023-07-28T04:26:16;2.83;;;1.70;;
78322;SDS011;67583;50.616;-3.404;2023-07-28T04:28:42;2.50;;;1.67;;
78322;SDS011;67583;50.616;-3.404;2023-07-28T04:31:07;2.22;;;1.23;;
78322;SDS011;67583;50.616;-3.404;2023-07-28T04:33:33;3.45;;;1.50;;
78322;SDS011;67583;50.616;-3.404;2023-07-28T04:35:59;3.50;;;1.60;;
78322;SDS011;67583;50.616;-3.404;2023-07-28T04:38:24;5.30;;;2.00;;
78322;SDS011;67583;50.616;-3.404;2023-07-28T04:40:50;2.72;;;1.58;;
78322;SDS011;67583;50.616;-3.404;2023-07-28T04:43:15;3.92;;;1.88;;
78322;SDS011;67583;50.616;-3.404;2023-07-28T04:45:40;4.65;;;1.73;;
78322;SDS011;67583;50.616;-3.404;2023-07-28T04:48:06;2.70;;;1.70;;
78322;SDS011;67583;50.616;-3.404;2023-07-28T04:50:31;3.20;;;1.63;;
78322;SDS011;67583;50.616;-3.404;2023-07-28T04:52:58;2.63;;;1.60;;
78322;SDS011;67583;50.616;-3.404;2023-07-28T04:55:24;2.63;;;1.52;;
78322;SDS011;67583;50.616;-3.404;2023-07-28T04:57:49;2.65;;;1.60;;
78322;SDS011;67583;50.616;-3.404;2023-07-28T05:00:15;3.05;;;1.52;;
78322;SDS011;67583;50.616;-3.404;2023-07-28T05:02:40;2.83;;;1.50;;
78322;SDS011;67583;50.616;-3.404;2023-07-28T05:05:06;1.85;;;1.42;;
78322;SDS011;67583;50.616;-3.404;2023-07-28T05:07:31;2.33;;;1.20;;
78322;SDS011;67583;50.616;-3.404;2023-07-28T05:09:57;2.50;;;1.70;;
78322;SDS011;67583;50.616;-3.404;2023-07-28T05:12:23;3.75;;;1.30;;
78322;SDS011;67583;50.616;-3.404;2023-07-28T05:14:48;2.83;;;1.60;;
78322;SDS011;67583;50.616;-3.404;2023-07-28T05:17:13;3.08;;;1.63;;
78322;SDS011;67583;50.616;-3.404;2023-07-28T05:19:39;2.13;;;1.40;;
78322;SDS011;67583;50.616;-3.404;2023-07-28T05:22:04;2.42;;;1.50;;
78322;SDS011;67583;50.616;-3.404;2023-07-28T05:24:31;2.17;;;1.30;;
78322;SDS011;67583;50.616;-3.404;2023-07-28T05:26:58;2.03;;;1.33;;
78322;SDS011;67583;50.616;-3.404;2023-07-28T05:29:23;1.70;;;1.30;;
78322;SDS011;67583;50.616;-3.404;2023-07-28T05:31:49;1.90;;;1.40;;
78322;SDS011;67583;50.616;-3.404;2023-07-28T05:34:14;1.88;;;1.50;;
78322;SDS011;67583;50.616;-3.404;2023-07-28T05:36:40;1.85;;;1.10;;
78322;SDS011;67583;50.616;-3.404;2023-07-28T05:39:05;2.35;;;1.60;;
78322;SDS011;67583;50.616;-3.404;2023-07-28T05:41:31;2.40;;;1.35;;
78322;SDS011;67583;50.616;-3.404;2023-07-28T05:43:56;3.63;;;1.38;;
78322;SDS011;67583;50.616;-3.404;2023-07-28T05:46:21;1.58;;;1.33;;
78322;SDS011;67583;50.616;-3.404;2023-07-28T05:48:47;1.63;;;1.38;;
78322;SDS011;67583;50.616;-3.404;2023-07-28T05:51:12;2.25;;;1.35;;
78322;SDS011;67583;50.616;-3.404;2023-07-28T05:53:37;1.50;;;1.20;;
78322;SDS011;67583;50.616;-3.404;2023-07-28T05:56:03;2.30;;;1.48;;
78322;SDS011;67583;50.616;-3.404;2023-07-28T05:58:28;1.52;;;1.30;;
78322;SDS011;67583;50.616;-3.404;2023-07-28T06:00:54;1.30;;;1.10;;
78322;SDS011;67583;50.616;-3.404;2023-07-28T06:03:19;2.47;;;1.20;;
78322;SDS011;67583;50.616;-3.404;2023-07-28T06:05:45;1.55;;;1.35;;
78322;SDS011;67583;50.616;-3.404;2023-07-28T06:08:10;2.03;;;1.25;;
78322;SDS011;67583;50.616;-3.404;2023-07-28T06:10:36;1.63;;;1.13;;
78322;SDS011;67583;50.616;-3.404;2023-07-28T06:13:02;2.88;;;1.10;;
78322;SDS011;67583;50.616;-3.404;2023-07-28T06:15:27;2.90;;;1.30;;
78322;SDS011;67583;50.616;-3.404;2023-07-28T06:17:52;2.17;;;1.45;;
78322;SDS011;67583;50.616;-3.404;2023-07-28T06:20:18;1.45;;;1.20;;
78322;SDS011;67583;50.616;-3.404;2023-07-28T06:22:43;3.72;;;1.60;;
78322;SDS011;67583;50.616;-3.404;2023-07-28T06:25:09;1.38;;;1.23;;
78322;SDS011;67583;50.616;-3.404;2023-07-28T06:27:35;1.65;;;1.30;;
78322;SDS011;67583;50.616;-3.404;2023-07-28T06:30:01;2.75;;;1.88;;
78322;SDS011;67583;50.616;-3.404;2023-07-28T06:32:26;3.15;;;1.45;;
78322;SDS011;67583;50.616;-3.404;2023-07-28T06:34:53;3.20;;;1.23;;
78322;SDS011;67583;50.616;-3.404;2023-07-28T06:37:18;2.22;;;1.30;;
78322;SDS011;67583;50.616;-3.404;2023-07-28T06:39:44;2.42;;;1.30;;
78322;SDS011;67583;50.616;-3.404;2023-07-28T06:42:10;2.63;;;1.52;;
78322;SDS011;67583;50.616;-3.404;2023-07-28T06:44:36;2.50;;;1.65;;
78322;SDS011;67583;50.616;-3.404;2023-07-28T06:47:02;2.30;;;1.40;;
78322;SDS011;67583;50.616;-3.404;2023-07-28T06:49:28;3.90;;;1.25;;
78322;SDS011;67583;50.616;-3.404;2023-07-28T06:51:53;2.03;;;1.40;;
78322;SDS011;67583;50.616;-3.404;2023-07-28T06:54:19;2.65;;;1.60;;
78322;SDS011;67583;50.616;-3.404;2023-07-28T06:56:44;2.35;;;1.70;;
78322;SDS011;67583;50.616;-3.404;2023-07-28T06:59:10;4.88;;;1.90;;
78322;SDS011;67583;50.616;-3.404;2023-07-28T07:01:36;2.55;;;1.70;;
78322;SDS011;67583;50.616;-3.404;2023-07-28T07:04:02;3.88;;;1.50;;
78322;SDS011;67583;50.616;-3.404;2023-07-28T07:06:27;2.45;;;1.58;;
78322;SDS011;67583;50.616;-3.404;2023-07-28T07:08:53;4.30;;;1.65;;
78322;SDS011;67583;50.616;-3.404;2023-07-28T07:11:18;3.10;;;1.70;;
78322;SDS011;67583;50.616;-3.404;2023-07-28T07:13:43;7.80;;;2.80;;
78322;SDS011;67583;50.616;-3.404;2023-07-28T07:16:15;3.83;;;2.10;;
78322;SDS011;67583;50.616;-3.404;2023-07-28T07:18:42;3.53;;;1.90;;
78322;SDS011;67583;50.616;-3.404;2023-07-28T07:21:10;4.38;;;1.90;;
78322;SDS011;67583;50.616;-3.404;2023-07-28T07:23:35;4.28;;;2.05;;
78322;SDS011;67583;50.616;-3.404;2023-07-28T07:26:02;4.40;;;1.70;;
78322;SDS011;67583;50.616;-3.404;2023-07-28T07:28:27;2.80;;;1.90;;
78322;SDS011;67583;50.616;-3.404;2023-07-28T07:30:53;5.38;;;2.30;;
78322;SDS011;67583;50.616;-3.404;2023-07-28T07:33:19;3.28;;;2.33;;
78322;SDS011;67583;50.616;-3.404;2023-07-28T07:35:45;6.95;;;1.77;;
78322;SDS011;67583;50.616;-3.404;2023-07-28T07:38:10;5.03;;;2.00;;
78322;SDS011;67583;50.616;-3.404;2023-07-28T07:40:35;6.07;;;2.40;;
78322;SDS011;67583;50.616;-3.404;2023-07-28T07:43:01;3.28;;;1.92;;
78322;SDS011;67583;50.616;-3.404;2023-07-28T07:45:28;3.85;;;1.90;;
78322;SDS011;67583;50.616;-3.404;2023-07-28T07:47:56;5.38;;;2.20;;
78322;SDS011;67583;50.616;-3.404;2023-07-28T07:50:21;3.15;;;2.05;;
78322;SDS011;67583;50.616;-3.404;2023-07-28T07:52:47;3.63;;;1.90;;
78322;SDS011;67583;50.616;-3.404;2023-07-28T07:55:15;3.95;;;2.13;;
78322;SDS011;67583;50.616;-3.404;2023-07-28T07:57:41;3.97;;;2.40;;
78322;SDS011;67583;50.616;-3.404;2023-07-28T08:00:07;3.80;;;2.92;;
78322;SDS011;67583;50.616;-3.404;2023-07-28T08:02:33;4.05;;;3.00;;
78322;SDS011;67583;50.616;-3.404;2023-07-28T08:04:59;3.75;;;2.50;;
78322;SDS011;67583;50.616;-3.404;2023-07-28T08:07:24;6.15;;;3.00;;
78322;SDS011;67583;50.616;-3.404;2023-07-28T08:09:50;4.22;;;2.70;;
78322;SDS011;67583;50.616;-3.404;2023-07-28T08:12:16;4.38;;;2.58;;
78322;SDS011;67583;50.616;-3.404;2023-07-28T08:14:42;4.30;;;2.60;;
78322;SDS011;67583;50.616;-3.404;2023-07-28T08:17:08;3.30;;;2.17;;
78322;SDS011;67583;50.616;-3.404;2023-07-28T08:19:33;3.63;;;2.70;;
78322;SDS011;67583;50.616;-3.404;2023-07-28T08:21:59;4.97;;;2.78;;
78322;SDS011;67583;50.616;-3.404;2023-07-28T08:24:24;5.28;;;2.40;;
78322;SDS011;67583;50.616;-3.404;2023-07-28T08:26:50;6.40;;;2.70;;
78322;SDS011;67583;50.616;-3.404;2023-07-28T08:29:15;5.30;;;2.40;;
78322;SDS011;67583;50.616;-3.404;2023-07-28T08:31:40;5.60;;;2.20;;
78322;SDS011;67583;50.616;-3.404;2023-07-28T08:34:06;7.68;;;2.28;;
78322;SDS011;67583;50.616;-3.404;2023-07-28T08:36:33;4.50;;;2.85;;
78322;SDS011;67583;50.616;-3.404;2023-07-28T08:38:58;4.70;;;2.60;;
78322;SDS011;67583;50.616;-3.404;2023-07-28T08:41:24;5.43;;;2.63;;
78322;SDS011;67583;50.616;-3.404;2023-07-28T08:43:50;3.40;;;2.40;;
78322;SDS011;67583;50.616;-3.404;2023-07-28T08:46:16;3.13;;;2.13;;
78322;SDS011;67583;50.616;-3.404;2023-07-28T08:48:43;5.25;;;3.30;;
78322;SDS011;67583;50.616;-3.404;2023-07-28T08:51:09;3.35;;;2.20;;
78322;SDS011;67583;50.616;-3.404;2023-07-28T08:53:37;6.93;;;2.90;;
78322;SDS011;67583;50.616;-3.404;2023-07-28T08:56:03;2.85;;;2.08;;
78322;SDS011;67583;50.616;-3.404;2023-07-28T08:58:29;4.18;;;2.40;;
78322;SDS011;67583;50.616;-3.404;2023-07-28T09:00:54;3.88;;;2.13;;
78322;SDS011;67583;50.616;-3.404;2023-07-28T09:03:20;6.63;;;2.60;;
78322;SDS011;67583;50.616;-3.404;2023-07-28T09:05:46;4.40;;;2.25;;
78322;SDS011;67583;50.616;-3.404;2023-07-28T09:08:15;5.00;;;2.63;;
78322;SDS011;67583;50.616;-3.404;2023-07-28T09:13:11;4.45;;;2.28;;
78322;SDS011;67583;50.616;-3.404;2023-07-28T09:15:37;3.47;;;2.25;;
78322;SDS011;67583;50.616;-3.404;2023-07-28T09:18:03;3.33;;;2.10;;
78322;SDS011;67583;50.616;-3.404;2023-07-28T09:20:35;3.95;;;2.30;;
78322;SDS011;67583;50.616;-3.404;2023-07-28T09:23:02;5.82;;;2.30;;
78322;SDS011;67583;50.616;-3.404;2023-07-28T09:25:28;3.72;;;2.20;;
78322;SDS011;67583;50.616;-3.404;2023-07-28T09:27:57;7.60;;;2.72;;
78322;SDS011;67583;50.616;-3.404;2023-07-28T09:30:23;4.47;;;2.72;;
78322;SDS011;67583;50.616;-3.404;2023-07-28T09:32:50;3.50;;;1.83;;
78322;SDS011;67583;50.616;-3.404;2023-07-28T09:35:16;5.72;;;2.50;;
78322;SDS011;67583;50.616;-3.404;2023-07-28T09:37:43;3.33;;;2.40;;
78322;SDS011;67583;50.616;-3.404;2023-07-28T09:40:13;6.97;;;2.67;;
78322;SDS011;67583;50.616;-3.404;2023-07-28T09:42:43;6.13;;;2.50;;
78322;SDS011;67583;50.616;-3.404;2023-07-28T09:45:14;6.88;;;2.30;;
78322;SDS011;67583;50.616;-3.404;2023-07-28T09:47:40;10.50;;;3.63;;
78322;SDS011;67583;50.616;-3.404;2023-07-28T09:50:07;7.18;;;2.80;;
78322;SDS011;67583;50.616;-3.404;2023-07-28T09:52:38;4.13;;;2.03;;
78322;SDS011;67583;50.616;-3.404;2023-07-28T09:55:07;8.15;;;2.67;;
78322;SDS011;67583;50.616;-3.404;2023-07-28T09:57:36;4.38;;;2.00;;
78322;SDS011;67583;50.616;-3.404;2023-07-28T10:00:05;7.53;;;2.45;;
78322;SDS011;67583;50.616;-3.404;2023-07-28T10:02:33;2.63;;;1.98;;
78322;SDS011;67583;50.616;-3.404;2023-07-28T10:05:00;5.57;;;2.10;;
78322;SDS011;67583;50.616;-3.404;2023-07-28T10:07:26;4.57;;;2.53;;
78322;SDS011;67583;50.616;-3.404;2023-07-28T10:09:52;3.30;;;1.88;;
78322;SDS011;67583;50.616;-3.404;2023-07-28T10:12:24;3.70;;;2.15;;
78322;SDS011;67583;50.616;-3.404;2023-07-28T10:15:03;6.40;;;2.10;;
78322;SDS011;67583;50.616;-3.404;2023-07-28T10:17:31;6.13;;;2.10;;
78322;SDS011;67583;50.616;-3.404;2023-07-28T10:19:57;3.90;;;2.10;;
78322;SDS011;67583;50.616;-3.404;2023-07-28T10:22:25;3.90;;;2.13;;
78322;SDS011;67583;50.616;-3.404;2023-07-28T10:24:55;4.78;;;2.47;;
78322;SDS011;67583;50.616;-3.404;2023-07-28T10:27:31;4.82;;;2.30;;
78322;SDS011;67583;50.616;-3.404;2023-07-28T10:30:01;4.22;;;2.15;;
78322;SDS011;67583;50.616;-3.404;2023-07-28T10:32:34;5.53;;;2.15;;
78322;SDS011;67583;50.616;-3.404;2023-07-28T10:35:06;3.67;;;2.28;;
78322;SDS011;67583;50.616;-3.404;2023-07-28T10:37:32;7.00;;;2.03;;
78322;SDS011;67583;50.616;-3.404;2023-07-28T10:43:01;3.70;;;1.77;;
78322;SDS011;67583;50.616;-3.404;2023-07-28T10:45:28;3.47;;;1.80;;
78322;SDS011;67583;50.616;-3.404;2023-07-28T10:47:55;2.88;;;1.88;;
78322;SDS011;67583;50.616;-3.404;2023-07-28T10:50:22;5.15;;;2.05;;
78322;SDS011;67583;50.616;-3.404;2023-07-28T10:52:48;4.50;;;1.98;;
78322;SDS011;67583;50.616;-3.404;2023-07-28T10:55:14;5.72;;;1.92;;
78322;SDS011;67583;50.616;-3.404;2023-07-28T10:57:43;3.67;;;1.88;;
78322;SDS011;67583;50.616;-3.404;2023-07-28T11:00:10;3.55;;;2.20;;
78322;SDS011;67583;50.616;-3.404;2023-07-28T11:02:47;6.40;;;2.00;;
78322;SDS011;67583;50.616;-3.404;2023-07-28T11:05:18;4.43;;;1.88;;
78322;SDS011;67583;50.616;-3.404;2023-07-28T11:07:44;3.13;;;1.95;;
78322;SDS011;67583;50.616;-3.404;2023-07-28T11:10:10;3.67;;;1.80;;
78322;SDS011;67583;50.616;-3.404;2023-07-28T11:12:39;2.83;;;1.55;;
78322;SDS011;67583;50.616;-3.404;2023-07-28T11:15:06;4.97;;;1.42;;
78322;SDS011;67583;50.616;-3.404;2023-07-28T11:17:36;2.47;;;1.35;;
78322;SDS011;67583;50.616;-3.404;2023-07-28T11:22:43;2.80;;;1.23;;
78322;SDS011;67583;50.616;-3.404;2023-07-28T11:25:10;1.65;;;1.10;;
78322;SDS011;67583;50.616;-3.404;2023-07-28T11:27:36;2.97;;;1.27;;
78322;SDS011;67583;50.616;-3.404;2023-07-28T11:30:02;2.58;;;1.42;;
78322;SDS011;67583;50.616;-3.404;2023-07-28T11:32:33;2.05;;;1.40;;
78322;SDS011;67583;50.616;-3.404;2023-07-28T11:35:09;2.35;;;1.27;;
78322;SDS011;67583;50.616;-3.404;2023-07-28T11:37:36;3.33;;;1.48;;
78322;SDS011;67583;50.616;-3.404;2023-07-28T11:40:02;3.45;;;1.50;;
78322;SDS011;67583;50.616;-3.404;2023-07-28T11:42:35;2.85;;;1.70;;
78322;SDS011;67583;50.616;-3.404;2023-07-28T11:45:04;4.82;;;1.60;;
78322;SDS011;67583;50.616;-3.404;2023-07-28T11:47:31;5.38;;;1.73;;
78322;SDS011;67583;50.616;-3.404;2023-07-28T11:49:56;4.53;;;1.83;;
78322;SDS011;67583;50.616;-3.404;2023-07-28T11:52:33;4.07;;;2.00;;
78322;SDS011;67583;50.616;-3.404;2023-07-28T11:55:00;7.05;;;2.20;;
78322;SDS011;67583;50.616;-3.404;2023-07-28T11:57:26;4.43;;;2.00;;
78322;SDS011;67583;50.616;-3.404;2023-07-28T11:59:59;4.50;;;1.83;;
78322;SDS011;67583;50.616;-3.404;2023-07-28T12:02:28;3.45;;;1.77;;
78322;SDS011;67583;50.616;-3.404;2023-07-28T12:04:55;3.78;;;2.35;;
78322;SDS011;67583;50.616;-3.404;2023-07-28T12:09:55;5.32;;;1.73;;
78322;SDS011;67583;50.616;-3.404;2023-07-28T12:12:24;4.72;;;2.05;;
78322;SDS011;67583;50.616;-3.404;2023-07-28T12:14:51;2.63;;;1.70;;
78322;SDS011;67583;50.616;-3.404;2023-07-28T12:17:18;3.08;;;1.52;;
78322;SDS011;67583;50.616;-3.404;2023-07-28T12:22:40;3.47;;;1.88;;
78322;SDS011;67583;50.616;-3.404;2023-07-28T12:25:06;2.55;;;1.30;;
78322;SDS011;67583;50.616;-3.404;2023-07-28T12:27:32;2.78;;;1.30;;
78322;SDS011;67583;50.616;-3.404;2023-07-28T12:29:58;3.15;;;1.60;;
78322;SDS011;67583;50.616;-3.404;2023-07-28T12:32:23;2.13;;;1.38;;
78322;SDS011;67583;50.616;-3.404;2023-07-28T12:34:49;3.17;;;2.20;;
78322;SDS011;67583;50.616;-3.404;2023-07-28T12:37:15;3.22;;;1.50;;
78322;SDS011;67583;50.616;-3.404;2023-07-28T12:39:41;2.45;;;1.55;;
78322;SDS011;67583;50.616;-3.404;2023-07-28T12:42:07;1.75;;;1.30;;
78322;SDS011;67583;50.616;-3.404;2023-07-28T12:44:34;3.33;;;1.30;;
78322;SDS011;67583;50.616;-3.404;2023-07-28T12:46:59;2.42;;;1.35;;
78322;SDS011;67583;50.616;-3.404;2023-07-28T12:49:25;3.75;;;1.08;;
78322;SDS011;67583;50.616;-3.404;2023-07-28T12:51:50;2.00;;;1.30;;
78322;SDS011;67583;50.616;-3.404;2023-07-28T12:54:16;2.80;;;1.60;;
78322;SDS011;67583;50.616;-3.404;2023-07-28T12:56:42;2.33;;;1.45;;
78322;SDS011;67583;50.616;-3.404;2023-07-28T12:59:07;1.77;;;1.35;;
78322;SDS011;67583;50.616;-3.404;2023-07-28T13:01:34;4.82;;;1.40;;
78322;SDS011;67583;50.616;-3.404;2023-07-28T13:04:01;4.10;;;1.42;;
78322;SDS011;67583;50.616;-3.404;2023-07-28T13:06:26;3.53;;;1.50;;
78322;SDS011;67583;50.616;-3.404;2023-07-28T13:08:51;5.75;;;1.95;;
78322;SDS011;67583;50.616;-3.404;2023-07-28T13:11:17;5.53;;;2.80;;
78322;SDS011;67583;50.616;-3.404;2023-07-28T13:13:42;3.63;;;1.67;;
78322;SDS011;67583;50.616;-3.404;2023-07-28T13:16:08;6.07;;;1.65;;
78322;SDS011;67583;50.616;-3.404;2023-07-28T13:18:33;3.42;;;1.60;;
78322;SDS011;67583;50.616;-3.404;2023-07-28T13:20:58;4.72;;;1.50;;
78322;SDS011;67583;50.616;-3.404;2023-07-28T13:23:24;4.82;;;1.65;;
78322;SDS011;67583;50.616;-3.404;2023-07-28T13:25:50;2.13;;;1.55;;
78322;SDS011;67583;50.616;-3.404;2023-07-28T13:28:16;4.35;;;1.50;;
78322;SDS011;67583;50.616;-3.404;2023-07-28T13:30:41;7.82;;;2.72;;
78322;SDS011;67583;50.616;-3.404;2023-07-28T13:33:06;6.15;;;2.00;;
78322;SDS011;67583;50.616;-3.404;2023-07-28T13:35:32;3.97;;;1.80;;
78322;SDS011;67583;50.616;-3.404;2023-07-28T13:37:57;6.85;;;2.33;;
78322;SDS011;67583;50.616;-3.404;2023-07-28T13:40:23;4.40;;;1.63;;
78322;SDS011;67583;50.616;-3.404;2023-07-28T13:42:48;4.30;;;1.70;;
78322;SDS011;67583;50.616;-3.404;2023-07-28T13:45:14;4.93;;;2.00;;
78322;SDS011;67583;50.616;-3.404;2023-07-28T13:47:39;5.20;;;1.70;;
78322;SDS011;67583;50.616;-3.404;2023-07-28T13:50:05;3.10;;;1.65;;
78322;SDS011;67583;50.616;-3.404;2023-07-28T13:52:31;3.83;;;1.60;;
78322;SDS011;67583;50.616;-3.404;2023-07-28T13:54:56;2.78;;;1.52;;
78322;SDS011;67583;50.616;-3.404;2023-07-28T13:57:22;3.15;;;1.50;;
78322;SDS011;67583;50.616;-3.404;2023-07-28T13:59:47;5.90;;;1.80;;
78322;SDS011;67583;50.616;-3.404;2023-07-28T14:02:13;3.90;;;1.58;;
78322;SDS011;67583;50.616;-3.404;2023-07-28T14:04:38;6.43;;;1.80;;
78322;SDS011;67583;50.616;-3.404;2023-07-28T14:07:04;3.38;;;1.65;;
78322;SDS011;67583;50.616;-3.404;2023-07-28T14:09:29;3.58;;;1.40;;
78322;SDS011;67583;50.616;-3.404;2023-07-28T14:11:54;4.80;;;1.83;;
78322;SDS011;67583;50.616;-3.404;2023-07-28T14:14:20;4.85;;;1.80;;
78322;SDS011;67583;50.616;-3.404;2023-07-28T14:16:45;3.20;;;2.38;;
78322;SDS011;67583;50.616;-3.404;2023-07-28T14:19:10;3.60;;;1.83;;
78322;SDS011;67583;50.616;-3.404;2023-07-28T14:21:36;2.80;;;1.17;;
78322;SDS011;67583;50.616;-3.404;2023-07-28T14:24:03;5.40;;;1.65;;
78322;SDS011;67583;50.616;-3.404;2023-07-28T14:26:30;2.80;;;1.52;;
78322;SDS011;67583;50.616;-3.404;2023-07-28T14:28:55;2.00;;;1.20;;
78322;SDS011;67583;50.616;-3.404;2023-07-28T14:31:21;2.80;;;1.30;;
78322;SDS011;67583;50.616;-3.404;2023-07-28T14:33:46;4.05;;;1.50;;
78322;SDS011;67583;50.616;-3.404;2023-07-28T14:36:12;2.70;;;1.55;;
78322;SDS011;67583;50.616;-3.404;2023-07-28T14:38:37;2.35;;;1.38;;
78322;SDS011;67583;50.616;-3.404;2023-07-28T14:41:03;5.00;;;1.67;;
78322;SDS011;67583;50.616;-3.404;2023-07-28T14:43:28;5.20;;;1.70;;